createdAt,value
2023-03-10T00:00:06.004Z,3.63
2023-03-10T00:02:34.986Z,1.47
2023-03-10T00:05:04.754Z,2.77
2023-03-10T00:07:33.024Z,1.70
2023-03-10T00:10:00.896Z,1.10
2023-03-10T00:12:28.706Z,2.47
2023-03-10T00:14:56.582Z,1.43
2023-03-10T00:17:24.228Z,1.77
2023-03-10T00:19:51.938Z,2.20
2023-03-10T00:22:20.838Z,1.23
2023-03-10T00:24:48.491Z,0.90
2023-03-10T00:27:16.362Z,2.03
2023-03-10T00:29:44.019Z,2.57
2023-03-10T00:32:11.609Z,1.37
2023-03-10T00:34:39.441Z,1.50
2023-03-10T00:37:07.273Z,4.00
2023-03-10T00:39:36.349Z,1.13
2023-03-10T00:42:04.222Z,2.30
2023-03-10T00:44:31.817Z,2.63
2023-03-10T00:46:59.439Z,2.17
2023-03-10T00:49:27.062Z,2.20
2023-03-10T00:51:54.661Z,1.53
2023-03-10T00:54:22.302Z,1.73
2023-03-10T00:56:51.298Z,1.47
2023-03-10T00:59:18.880Z,0.60
2023-03-10T01:01:46.655Z,3.00
2023-03-10T01:04:15.881Z,3.17
2023-03-10T01:06:45.180Z,3.77
2023-03-10T01:09:12.786Z,2.07
2023-03-10T01:11:40.389Z,1.23
2023-03-10T01:14:11.699Z,2.37
2023-03-10T01:16:39.308Z,0.93
2023-03-10T01:19:06.951Z,1.37
2023-03-10T01:21:36.423Z,2.90
2023-03-10T01:24:05.173Z,3.10
2023-03-10T01:26:33.504Z,3.20
2023-03-10T01:29:01.094Z,3.60
2023-03-10T01:31:30.119Z,3.40
2023-03-10T01:33:57.797Z,1.17
2023-03-10T01:36:27.537Z,0.70
2023-03-10T01:38:56.499Z,1.13
2023-03-10T01:41:25.831Z,3.03
2023-03-10T01:43:54.672Z,1.00
2023-03-10T01:46:38.606Z,1.90
2023-03-10T01:49:10.336Z,1.20
2023-03-10T01:51:39.226Z,3.10
2023-03-10T01:54:08.307Z,1.23
2023-03-10T01:56:36.312Z,0.90
2023-03-10T01:59:04.246Z,1.13
2023-03-10T02:01:33.009Z,3.03
2023-03-10T02:04:04.816Z,1.63
2023-03-10T02:06:33.428Z,0.87
2023-03-10T02:09:02.735Z,1.80
2023-03-10T02:11:30.683Z,1.13
2023-03-10T02:13:58.394Z,0.67
2023-03-10T02:16:26.097Z,1.60
2023-03-10T02:18:53.813Z,2.07
2023-03-10T02:21:28.805Z,2.20
2023-03-10T02:24:01.602Z,2.73
2023-03-10T02:26:37.013Z,1.47
2023-03-10T02:29:08.520Z,3.53
2023-03-10T02:31:37.124Z,1.13
2023-03-10T02:34:06.633Z,1.43
2023-03-10T02:36:34.329Z,1.17
2023-03-10T02:39:01.925Z,2.40
2023-03-10T02:41:31.853Z,2.30
2023-03-10T02:44:01.270Z,0.90
2023-03-10T02:46:30.262Z,3.37
2023-03-10T02:49:00.298Z,3.93
2023-03-10T02:51:31.016Z,3.00
2023-03-10T02:54:00.311Z,1.00
2023-03-10T02:56:27.934Z,4.50
2023-03-10T02:58:55.460Z,1.13
2023-03-10T03:01:23.133Z,2.73
2023-03-10T03:03:52.138Z,2.40
2023-03-10T03:06:19.765Z,2.50
2023-03-10T03:08:47.388Z,2.27
2023-03-10T03:11:15.290Z,3.13
2023-03-10T03:13:43.290Z,2.20
2023-03-10T03:16:11.449Z,1.37
2023-03-10T03:18:39.350Z,3.70
2023-03-10T03:21:11.086Z,2.73
2023-03-10T03:23:39.355Z,2.70
2023-03-10T03:26:14.103Z,2.50
2023-03-10T03:28:42.369Z,2.57
2023-03-10T03:31:14.766Z,1.60
2023-03-10T03:33:42.397Z,2.17
2023-03-10T03:36:11.421Z,1.30
2023-03-10T03:38:39.045Z,1.53
2023-03-10T03:41:06.974Z,1.73
2023-03-10T03:43:34.572Z,1.60
2023-03-10T03:46:02.461Z,1.73
2023-03-10T03:48:30.044Z,2.23
2023-03-10T03:50:57.615Z,1.53
2023-03-10T03:53:26.537Z,4.57
2023-03-10T03:55:54.063Z,2.70
2023-03-10T03:58:21.752Z,3.33
2023-03-10T04:00:51.681Z,1.97
2023-03-10T04:03:19.598Z,1.73
2023-03-10T04:05:47.393Z,2.80
2023-03-10T04:08:15.521Z,2.93
2023-03-10T04:10:44.779Z,1.57
2023-03-10T04:13:12.336Z,2.70
2023-03-10T04:15:39.926Z,2.87
2023-03-10T04:18:08.211Z,1.53
2023-03-10T04:20:35.804Z,3.53
2023-03-10T04:23:04.137Z,2.10
2023-03-10T04:25:32.065Z,5.80
2023-03-10T04:28:00.975Z,4.13
2023-03-10T04:30:29.749Z,3.33
2023-03-10T04:32:59.119Z,4.83
2023-03-10T04:35:26.854Z,4.17
2023-03-10T04:37:54.417Z,6.63
2023-03-10T04:40:22.594Z,4.63
2023-03-10T04:42:50.184Z,5.03
2023-03-10T04:45:19.233Z,3.83
2023-03-10T04:47:46.806Z,10.53
2023-03-10T04:50:17.433Z,5.20
2023-03-10T04:52:45.434Z,5.40
2023-03-10T04:55:13.787Z,7.13
2023-03-10T04:57:41.457Z,5.00
2023-03-10T05:00:12.664Z,4.57
2023-03-10T05:02:41.715Z,8.23
2023-03-10T05:05:10.202Z,6.27
2023-03-10T05:07:38.185Z,3.90
2023-03-10T05:10:06.836Z,4.93
2023-03-10T05:12:34.422Z,7.27
2023-03-10T05:15:02.042Z,3.10
2023-03-10T05:17:30.175Z,4.50
2023-03-10T05:19:59.731Z,5.57
2023-03-10T05:22:27.387Z,4.40
2023-03-10T05:24:54.956Z,4.23
2023-03-10T05:27:22.543Z,5.17
2023-03-10T05:29:50.077Z,5.57
2023-03-10T05:32:17.793Z,6.07
2023-03-10T05:34:45.404Z,5.97
2023-03-10T05:37:14.289Z,8.03
2023-03-10T05:39:43.710Z,5.60
2023-03-10T05:42:12.324Z,4.83
2023-03-10T05:44:40.000Z,5.10
2023-03-10T05:47:08.026Z,6.80
2023-03-10T05:49:38.524Z,7.20
2023-03-10T05:52:07.079Z,6.33
2023-03-10T05:54:36.048Z,5.80
2023-03-10T05:57:03.679Z,6.03
2023-03-10T05:59:31.409Z,4.00
2023-03-10T06:01:58.929Z,4.27
2023-03-10T06:04:28.326Z,5.20
2023-03-10T06:06:56.643Z,6.60
2023-03-10T06:09:24.186Z,6.23
2023-03-10T06:11:53.066Z,5.37
2023-03-10T06:14:20.971Z,4.47
2023-03-10T06:16:51.605Z,5.20
2023-03-10T06:19:19.339Z,4.83
2023-03-10T06:21:46.934Z,4.70
2023-03-10T06:24:14.710Z,6.40
2023-03-10T06:26:42.614Z,3.23
2023-03-10T06:29:11.583Z,7.73
2023-03-10T06:31:39.347Z,4.70
2023-03-10T06:34:06.927Z,3.23
2023-03-10T06:36:34.457Z,3.37
2023-03-10T06:39:02.128Z,4.63
2023-03-10T06:41:29.826Z,2.77
2023-03-10T06:43:57.464Z,2.33
2023-03-10T06:46:26.608Z,2.10
2023-03-10T06:48:54.176Z,2.37
2023-03-10T06:51:22.181Z,4.17
2023-03-10T06:53:50.136Z,2.10
2023-03-10T06:56:19.000Z,3.80
2023-03-10T06:58:46.800Z,1.73
2023-03-10T07:01:23.150Z,3.07
2023-03-10T07:03:52.214Z,6.80
2023-03-10T07:06:19.923Z,3.47
2023-03-10T07:08:47.610Z,2.10
2023-03-10T07:11:15.366Z,3.30
2023-03-10T07:13:43.162Z,2.63
2023-03-10T07:16:10.889Z,2.97
2023-03-10T07:18:38.535Z,2.87
2023-03-10T07:21:09.842Z,5.40
2023-03-10T07:23:37.538Z,2.83
2023-03-10T07:26:08.506Z,6.03
2023-03-10T07:28:36.793Z,5.40
2023-03-10T07:31:05.504Z,2.23
2023-03-10T07:33:33.397Z,4.97
2023-03-10T07:36:05.374Z,4.00
2023-03-10T07:38:34.669Z,3.80
2023-03-10T07:41:02.539Z,5.43
2023-03-10T07:43:30.953Z,3.23
2023-03-10T07:45:58.991Z,5.90
2023-03-10T07:48:26.794Z,1.93
2023-03-10T07:50:58.178Z,2.57
2023-03-10T07:53:26.778Z,1.70
2023-03-10T07:55:55.863Z,1.43
2023-03-10T07:58:24.284Z,2.87
2023-03-10T08:00:55.355Z,1.50
2023-03-10T08:03:23.158Z,0.70
2023-03-10T08:05:50.810Z,1.60
2023-03-10T08:08:18.843Z,1.50
2023-03-10T08:10:46.559Z,1.83
2023-03-10T08:13:15.789Z,2.80
2023-03-10T08:15:43.497Z,1.97
2023-03-10T08:18:11.159Z,2.27
2023-03-10T08:20:40.573Z,3.93
2023-03-10T08:23:08.383Z,2.50
2023-03-10T08:25:35.975Z,1.80
2023-03-10T08:28:03.729Z,3.17
2023-03-10T08:30:32.697Z,3.50
2023-03-10T08:33:00.354Z,5.20
2023-03-10T08:35:28.038Z,2.00
2023-03-10T08:37:55.646Z,4.03
2023-03-10T08:40:23.372Z,6.47
2023-03-10T08:42:50.979Z,4.10
2023-03-10T08:45:19.288Z,3.40
2023-03-10T08:47:48.273Z,3.27
2023-03-10T08:50:15.852Z,5.13
2023-03-10T08:52:43.600Z,7.10
2023-03-10T08:55:12.105Z,2.97
2023-03-10T08:57:39.730Z,3.87
2023-03-10T09:00:10.521Z,5.27
2023-03-10T09:02:38.116Z,2.30
2023-03-10T09:05:08.051Z,2.87
2023-03-10T09:07:35.682Z,3.90
2023-03-10T09:10:03.334Z,4.20
2023-03-10T09:12:36.082Z,2.33
2023-03-10T09:15:07.238Z,4.30
2023-03-10T09:17:34.911Z,5.77
2023-03-10T09:20:02.482Z,1.93
2023-03-10T09:22:31.415Z,2.10
2023-03-10T09:25:00.758Z,4.83
2023-03-10T09:27:28.490Z,5.10
2023-03-10T09:29:56.765Z,2.17
2023-03-10T09:32:25.699Z,5.20
2023-03-10T09:34:53.297Z,3.23
2023-03-10T09:37:20.872Z,3.87
2023-03-10T09:39:49.824Z,2.47
2023-03-10T09:42:37.896Z,2.77
2023-03-10T09:45:17.912Z,2.10
2023-03-10T09:47:53.154Z,3.30
2023-03-10T09:50:29.417Z,2.27
2023-03-10T09:53:00.509Z,2.70
2023-03-10T09:55:33.304Z,2.60
2023-03-10T09:58:03.094Z,2.63
2023-03-10T10:00:35.421Z,5.33
2023-03-10T10:03:09.054Z,4.83
2023-03-10T10:05:38.888Z,3.03
2023-03-10T10:08:16.018Z,1.33
2023-03-10T10:10:48.127Z,2.83
2023-03-10T10:13:17.403Z,2.97
2023-03-10T10:15:46.781Z,1.83
2023-03-10T10:18:20.834Z,2.23
2023-03-10T10:20:51.153Z,2.33
2023-03-10T10:23:26.394Z,2.67
2023-03-10T10:25:56.797Z,1.10
2023-03-10T10:28:28.192Z,2.80
2023-03-10T10:31:11.094Z,2.07
2023-03-10T10:33:59.166Z,3.33
2023-03-10T10:36:29.368Z,1.33
2023-03-10T10:38:57.879Z,0.70
2023-03-10T10:41:29.826Z,1.60
2023-03-10T10:44:01.212Z,1.67
2023-03-10T10:46:30.296Z,1.80
2023-03-10T10:49:08.966Z,1.17
2023-03-10T10:51:38.560Z,0.43
2023-03-10T10:54:21.819Z,0.80
2023-03-10T10:56:54.927Z,1.63
2023-03-10T10:59:23.622Z,2.00
2023-03-10T11:01:53.567Z,1.50
2023-03-10T11:04:25.363Z,4.00
2023-03-10T11:06:53.972Z,2.23
2023-03-10T11:09:23.272Z,0.80
2023-03-10T11:12:03.481Z,2.47
2023-03-10T11:14:38.218Z,1.47
2023-03-10T11:17:11.136Z,2.17
2023-03-10T11:19:50.988Z,1.50
2023-03-10T11:22:26.194Z,0.67
2023-03-10T11:24:58.080Z,1.67
2023-03-10T11:27:34.592Z,2.07
2023-03-10T11:30:11.256Z,0.67
2023-03-10T11:32:46.118Z,1.27
2023-03-10T11:35:21.014Z,0.57
2023-03-10T11:37:52.834Z,0.50
2023-03-10T11:40:24.454Z,1.60
2023-03-10T11:42:56.728Z,0.70
2023-03-10T11:45:28.948Z,0.97
2023-03-10T11:48:08.775Z,1.90
2023-03-10T11:50:42.590Z,1.13
2023-03-10T11:53:14.715Z,1.17
2023-03-10T11:55:42.312Z,2.00
2023-03-10T11:58:19.897Z,1.40
2023-03-10T12:00:47.745Z,1.73
2023-03-10T12:03:18.373Z,0.97
2023-03-10T12:05:49.946Z,0.67
2023-03-10T12:08:17.919Z,1.87
2023-03-10T12:10:45.537Z,1.30
2023-03-10T12:13:23.307Z,0.60
2023-03-10T12:15:52.143Z,0.60
2023-03-10T12:18:19.970Z,1.27
2023-03-10T12:20:47.552Z,0.40
2023-03-10T12:23:31.821Z,1.17
2023-03-10T12:25:59.491Z,0.77
2023-03-10T12:28:29.424Z,0.50
2023-03-10T12:30:58.477Z,0.40
2023-03-10T12:33:41.942Z,1.30
2023-03-10T12:36:11.676Z,0.60
2023-03-10T12:38:43.815Z,0.37
2023-03-10T12:41:11.553Z,0.70
2023-03-10T12:43:55.690Z,0.90
2023-03-10T12:46:27.544Z,0.40
2023-03-10T12:49:05.454Z,0.60
2023-03-10T12:51:37.645Z,0.87
2023-03-10T12:54:30.112Z,1.70
2023-03-10T12:57:04.177Z,0.50
2023-03-10T12:59:40.082Z,1.70
2023-03-10T13:02:20.034Z,1.77
2023-03-10T13:04:47.783Z,0.30
2023-03-10T13:07:16.818Z,0.43
2023-03-10T13:09:47.265Z,1.03
2023-03-10T13:12:21.678Z,1.87
2023-03-10T13:14:55.381Z,0.50
2023-03-10T13:17:25.643Z,0.50
2023-03-10T13:20:09.475Z,0.50
2023-03-10T13:22:37.009Z,0.20
2023-03-10T13:25:08.026Z,1.33
2023-03-10T13:27:36.053Z,0.70
2023-03-10T13:30:11.952Z,0.97
2023-03-10T13:32:40.008Z,0.47
2023-03-10T13:35:18.054Z,0.50
2023-03-10T13:37:45.668Z,0.73
2023-03-10T13:40:17.552Z,0.43
2023-03-10T13:42:47.982Z,0.40
2023-03-10T13:45:22.736Z,0.30
2023-03-10T13:47:52.226Z,0.57
2023-03-10T13:50:20.119Z,0.40
2023-03-10T13:52:54.072Z,0.30
2023-03-10T13:55:21.683Z,0.30
2023-03-10T13:57:49.418Z,0.20
2023-03-10T14:00:20.746Z,0.30
2023-03-10T14:02:49.751Z,0.30
2023-03-10T14:05:39.752Z,1.43
2023-03-10T14:08:07.702Z,0.53
2023-03-10T14:10:35.261Z,0.20
2023-03-10T14:13:02.812Z,0.17
2023-03-10T14:15:38.594Z,0.10
2023-03-10T14:18:21.100Z,0.40
2023-03-10T14:20:49.168Z,0.37
2023-03-10T14:23:28.013Z,0.20
2023-03-10T14:25:56.937Z,0.10
2023-03-10T14:28:26.769Z,0.10
2023-03-10T14:30:56.091Z,0.10
2023-03-10T14:33:24.003Z,0.17
2023-03-10T14:35:51.848Z,0.10
2023-03-10T14:38:19.596Z,0.20
2023-03-10T14:40:48.747Z,1.33
2023-03-10T14:43:18.548Z,0.73
2023-03-10T14:45:46.825Z,0.40
2023-03-10T14:48:18.081Z,0.40
2023-03-10T14:50:46.029Z,0.23
2023-03-10T14:53:15.289Z,0.57
2023-03-10T14:55:44.638Z,0.20
2023-03-10T14:58:13.670Z,0.30
2023-03-10T15:00:41.278Z,1.43
2023-03-10T15:03:10.588Z,1.07
2023-03-10T15:05:48.402Z,0.20
2023-03-10T15:08:17.237Z,0.60
2023-03-10T15:10:48.037Z,0.10
2023-03-10T15:13:16.099Z,0.40
2023-03-10T15:15:45.608Z,0.20
2023-03-10T15:18:14.931Z,0.30
2023-03-10T15:20:44.243Z,2.27
2023-03-10T15:23:16.509Z,0.10
2023-03-10T15:25:46.354Z,0.43
2023-03-10T15:28:14.302Z,0.13
2023-03-10T15:30:42.061Z,0.83
2023-03-10T15:33:10.697Z,0.20
2023-03-10T15:35:38.560Z,0.40
2023-03-10T15:38:07.819Z,0.67
2023-03-10T15:40:36.250Z,0.43
2023-03-10T15:43:03.861Z,0.63
2023-03-10T15:45:32.296Z,0.43
2023-03-10T15:47:59.972Z,0.80
2023-03-10T15:50:28.204Z,0.33
2023-03-10T15:52:57.035Z,0.70
2023-03-10T15:55:26.647Z,0.77
2023-03-10T15:57:55.061Z,0.60
2023-03-10T16:00:24.224Z,2.00
2023-03-10T16:02:52.142Z,0.70
2023-03-10T16:05:20.379Z,3.80
2023-03-10T16:07:47.960Z,1.30
2023-03-10T16:10:17.295Z,1.17
2023-03-10T16:12:46.457Z,1.17
2023-03-10T16:15:17.593Z,0.57
2023-03-10T16:17:45.779Z,0.93
2023-03-10T16:20:14.644Z,1.13
2023-03-10T16:22:43.123Z,0.40
2023-03-10T16:25:15.085Z,2.23
2023-03-10T16:27:42.858Z,1.00
2023-03-10T16:30:13.458Z,2.30
2023-03-10T16:32:41.042Z,1.77
2023-03-10T16:35:09.859Z,3.97
2023-03-10T16:37:37.419Z,0.73
2023-03-10T16:40:07.224Z,1.30
2023-03-10T16:42:36.726Z,1.60
2023-03-10T16:45:04.570Z,1.10
2023-03-10T16:47:33.942Z,0.73
2023-03-10T16:50:01.609Z,1.07
2023-03-10T16:52:29.189Z,2.63
2023-03-10T16:54:58.115Z,1.03
2023-03-10T16:57:25.891Z,1.47
2023-03-10T16:59:53.458Z,1.43
2023-03-10T17:02:21.072Z,1.03
2023-03-10T17:04:50.016Z,0.80
2023-03-10T17:07:19.182Z,1.27
2023-03-10T17:09:46.822Z,0.93
2023-03-10T17:12:14.575Z,0.90
2023-03-10T17:14:43.871Z,1.30
2023-03-10T17:17:11.464Z,0.50
2023-03-10T17:19:39.042Z,0.63
2023-03-10T17:22:07.936Z,0.87
2023-03-10T17:24:35.508Z,0.70
2023-03-10T17:27:03.111Z,0.80
2023-03-10T17:29:31.201Z,1.33
2023-03-10T17:31:58.808Z,0.93
2023-03-10T17:34:27.072Z,0.80
2023-03-10T17:36:54.638Z,0.73
2023-03-10T17:39:23.952Z,0.60
2023-03-10T17:41:51.663Z,0.80
2023-03-10T17:44:19.531Z,0.70
2023-03-10T17:46:47.343Z,2.70
2023-03-10T17:49:15.880Z,2.10
2023-03-10T17:51:44.592Z,1.33
2023-03-10T17:54:13.893Z,0.50
2023-03-10T17:56:43.107Z,0.87
2023-03-10T17:59:12.631Z,0.70
2023-03-10T18:01:40.270Z,1.73
2023-03-10T18:04:07.970Z,1.33
2023-03-10T18:06:36.672Z,0.67
2023-03-10T18:09:06.537Z,0.80
2023-03-10T18:11:34.844Z,0.60
2023-03-10T18:14:04.167Z,0.90
2023-03-10T18:16:33.542Z,0.60
2023-03-10T18:19:01.371Z,0.60
2023-03-10T18:21:29.318Z,0.30
2023-03-10T18:23:57.375Z,0.30
2023-03-10T18:26:27.501Z,1.00
2023-03-10T18:28:55.109Z,0.30
2023-03-10T18:31:26.551Z,0.40
2023-03-10T18:33:57.682Z,0.33
2023-03-10T18:36:25.745Z,0.57
2023-03-10T18:38:54.292Z,0.77
2023-03-10T18:41:23.777Z,0.60
2023-03-10T18:43:51.538Z,0.70
2023-03-10T18:46:19.229Z,4.07
2023-03-10T18:48:48.232Z,0.50
2023-03-10T18:51:15.812Z,0.70
2023-03-10T18:53:45.022Z,1.03
2023-03-10T18:56:12.660Z,1.50
2023-03-10T18:58:40.300Z,1.37
2023-03-10T19:03:58.807Z,0.90
2023-03-10T19:06:30.885Z,1.23
2023-03-10T19:08:58.445Z,4.63
2023-03-10T19:11:27.760Z,1.00
2023-03-10T19:13:55.506Z,0.90
2023-03-10T19:16:23.112Z,1.40
2023-03-10T19:18:50.729Z,1.70
2023-03-10T19:21:21.941Z,1.60
2023-03-10T19:23:50.346Z,1.20
2023-03-10T19:26:17.893Z,1.40
2023-03-10T19:28:45.503Z,1.40
2023-03-10T19:31:14.847Z,1.20
2023-03-10T19:33:43.024Z,1.87
2023-03-10T19:36:12.576Z,1.47
2023-03-10T19:38:42.886Z,2.83
2023-03-10T19:41:13.058Z,1.37
2023-03-10T19:43:40.649Z,1.50
2023-03-10T19:46:09.413Z,1.63
2023-03-10T19:48:37.149Z,1.43
2023-03-10T19:51:05.797Z,1.17
2023-03-10T19:53:33.651Z,2.00
2023-03-10T19:56:04.607Z,1.43
2023-03-10T19:58:32.780Z,1.50
2023-03-10T20:01:00.950Z,1.93
2023-03-10T20:03:31.215Z,3.17
2023-03-10T20:05:58.880Z,1.70
2023-03-10T20:08:26.512Z,1.50
2023-03-10T20:10:55.455Z,3.60
2023-03-10T20:13:24.380Z,1.50
2023-03-10T20:15:51.941Z,2.10
2023-03-10T20:18:21.080Z,2.23
2023-03-10T20:20:48.742Z,1.53
2023-03-10T20:23:16.791Z,2.20
2023-03-10T20:25:45.595Z,1.63
2023-03-10T20:28:14.108Z,1.87
2023-03-10T20:30:43.081Z,1.77
2023-03-10T20:33:10.722Z,1.67
2023-03-10T20:35:38.702Z,1.97
2023-03-10T20:38:06.576Z,1.53
2023-03-10T20:40:34.312Z,1.50
2023-03-10T20:43:01.911Z,1.20
2023-03-10T20:45:29.504Z,1.20
2023-03-10T20:47:58.954Z,1.57
2023-03-10T20:50:27.065Z,1.10
2023-03-10T20:52:55.023Z,1.07
2023-03-10T20:55:24.253Z,1.20
2023-03-10T20:57:53.004Z,1.07
2023-03-10T21:00:22.688Z,2.10
2023-03-10T21:02:52.571Z,1.27
2023-03-10T21:05:22.067Z,1.17
2023-03-10T21:07:49.933Z,1.10
2023-03-10T21:10:17.850Z,1.20
2023-03-10T21:12:45.651Z,1.40
2023-03-10T21:15:15.898Z,1.00
2023-03-10T21:17:43.938Z,1.10
2023-03-10T21:20:12.690Z,0.93
2023-03-10T21:22:41.770Z,0.90
2023-03-10T21:25:12.871Z,1.33
2023-03-10T21:27:40.493Z,1.13
2023-03-10T21:30:12.706Z,1.00
2023-03-10T21:32:40.429Z,0.90
2023-03-10T21:35:11.096Z,1.07
2023-03-10T21:37:41.757Z,1.13
2023-03-10T21:40:14.818Z,1.23
2023-03-10T21:42:42.746Z,0.77
2023-03-10T21:45:12.912Z,0.90
2023-03-10T21:47:40.586Z,1.13
2023-03-10T21:50:09.489Z,0.80
2023-03-10T21:52:37.100Z,0.80
2023-03-10T21:55:05.140Z,1.27
2023-03-10T21:57:34.109Z,0.90
2023-03-10T22:00:01.715Z,1.00
2023-03-10T22:02:31.185Z,1.20
2023-03-10T22:04:58.812Z,0.80
2023-03-10T22:07:26.428Z,0.80
2023-03-10T22:09:54.020Z,0.77
2023-03-10T22:12:21.601Z,1.20
2023-03-10T22:14:55.980Z,1.27
2023-03-10T22:17:23.654Z,1.00
2023-03-10T22:19:52.004Z,0.97
2023-03-10T22:22:19.559Z,1.53
2023-03-10T22:24:47.327Z,1.20
2023-03-10T22:27:15.064Z,1.30
2023-03-10T22:29:43.488Z,1.30
2023-03-10T22:32:12.627Z,1.23
2023-03-10T22:34:40.268Z,1.30
2023-03-10T22:37:07.860Z,0.80
2023-03-10T22:39:37.635Z,1.00
2023-03-10T22:42:05.780Z,2.87
2023-03-10T22:44:35.538Z,0.93
2023-03-10T22:47:03.410Z,0.83
2023-03-10T22:49:33.012Z,0.77
2023-03-10T22:52:00.650Z,0.93
2023-03-10T22:54:28.475Z,0.60
2023-03-10T22:56:56.108Z,2.40
2023-03-10T22:59:23.705Z,1.53
2023-03-10T23:01:51.349Z,3.10
2023-03-10T23:04:19.487Z,1.97
2023-03-10T23:06:48.411Z,1.30
2023-03-10T23:09:15.987Z,1.00
2023-03-10T23:11:43.612Z,2.50
2023-03-10T23:14:11.821Z,1.20
2023-03-10T23:16:39.552Z,1.13
2023-03-10T23:19:08.753Z,1.57
2023-03-10T23:21:36.580Z,1.87
2023-03-10T23:24:06.234Z,1.00
2023-03-10T23:26:35.075Z,2.23
2023-03-10T23:29:03.154Z,1.53
2023-03-10T23:31:30.803Z,1.03
2023-03-10T23:33:58.362Z,1.23
2023-03-10T23:36:25.994Z,0.70
2023-03-10T23:38:53.599Z,1.97
2023-03-10T23:41:22.679Z,2.00
2023-03-10T23:43:51.584Z,1.27
2023-03-10T23:46:21.770Z,2.67
2023-03-10T23:48:49.795Z,0.80
2023-03-10T23:51:18.246Z,3.20
2023-03-10T23:53:46.095Z,2.07
2023-03-10T23:56:13.784Z,2.03
2023-03-10T23:58:42.737Z,2.40
